Terminal Aerodrome Forecast
Issued by NWS

Home | Current Version | Previous Version | Text Only | Print | Product List | Glossary Off
Versions: 1 2 3 4 5 6 7 8 9 10 11 12 13 14 15 16 17 18 19 20 21 22 23 24 25

000
FTUS43 KGRB 250700 AAA
TAFATW
TAF AMD
KATW 250750Z 2508/2606 07007KT 2SM -SNPL SCT015 BKN025
     FM250900 10007KT 1SM -SN SCT007 OVC011
     FM251000 08003KT 1/2SM SN OVC005
      TEMPO 2510/2512 1/4SM +SN OVC002
     FM251300 09002KT 2SM -SN OVC004
     FM251500 26009KT P6SM OVC010
     FM251600 25012KT P6SM BKN015
     FM252000 24012G18KT P6SM SCT015 BKN070
     FM260100 26010KT P6SM BKN100=

USA.gov is the U.S. government's official web portal to all federal, state and local government web resources and services.